createdAt,value
2022-08-08T00:00:56.241Z,1.23
2022-08-08T00:05:43.925Z,1.10
2022-08-08T00:11:14.815Z,1.40
2022-08-08T00:16:24.472Z,1.15
2022-08-08T00:21:39.631Z,1.38
2022-08-08T00:26:52.054Z,1.15
2022-08-08T00:32:28.854Z,1.30
2022-08-08T00:37:47.073Z,1.50
2022-08-08T00:43:19.480Z,1.23
2022-08-08T00:49:03.031Z,1.23
2022-08-08T00:54:35.085Z,1.60
2022-08-08T01:00:07.450Z,1.30
2022-08-08T01:05:59.483Z,1.40
2022-08-08T01:11:41.232Z,0.93
2022-08-08T01:17:17.626Z,1.17
2022-08-08T01:22:51.548Z,1.15
2022-08-08T01:28:27.920Z,1.45
2022-08-08T01:34:06.398Z,1.20
2022-08-08T01:39:27.885Z,1.10
2022-08-08T01:44:53.463Z,1.20
2022-08-08T01:50:10.350Z,1.30
2022-08-08T01:56:28.109Z,1.20
2022-08-08T02:01:09.050Z,1.13
2022-08-08T02:06:44.003Z,1.30
2022-08-08T02:11:59.663Z,1.10
2022-08-08T02:17:17.904Z,1.13
2022-08-08T02:22:53.001Z,1.35
2022-08-08T02:28:03.334Z,1.35
2022-08-08T02:34:00.678Z,1.50
2022-08-08T02:39:42.115Z,1.27
2022-08-08T02:45:18.758Z,1.35
2022-08-08T02:51:29.774Z,1.10
2022-08-08T02:57:18.100Z,1.38
2022-08-08T03:02:52.317Z,1.45
2022-08-08T03:08:34.776Z,1.17
2022-08-08T03:15:58.223Z,1.30
2022-08-08T03:19:51.053Z,1.23
2022-08-08T03:24:58.866Z,1.30
2022-08-08T03:30:07.742Z,1.83
2022-08-08T03:35:12.951Z,4.07
2022-08-08T03:40:29.929Z,2.58
2022-08-08T03:46:05.603Z,2.40
2022-08-08T03:51:02.925Z,1.63
2022-08-08T03:56:09.757Z,1.50
2022-08-08T04:01:23.597Z,1.30
2022-08-08T04:06:31.039Z,1.60
2022-08-08T04:11:58.901Z,1.40
2022-08-08T04:17:45.613Z,1.35
2022-08-08T04:22:44.948Z,1.20
2022-08-08T04:28:35.430Z,1.30
2022-08-08T04:33:21.102Z,1.20
2022-08-08T04:38:26.358Z,1.30
2022-08-08T04:43:46.899Z,1.20
2022-08-08T04:48:56.749Z,1.20
2022-08-08T04:54:39.150Z,1.30
2022-08-08T04:59:30.094Z,1.20
2022-08-08T05:04:35.507Z,1.42
2022-08-08T05:09:39.226Z,1.40
2022-08-08T05:14:44.865Z,1.20
2022-08-08T05:20:04.415Z,1.27
2022-08-08T05:25:17.203Z,1.50
2022-08-08T05:30:28.258Z,1.50
2022-08-08T05:35:39.696Z,1.15
2022-08-08T05:40:48.887Z,1.10
2022-08-08T05:46:03.264Z,1.10
2022-08-08T05:51:14.432Z,1.08
2022-08-08T05:56:23.871Z,1.10
2022-08-08T06:01:52.803Z,1.45
2022-08-08T06:07:00.413Z,1.05
2022-08-08T06:12:06.539Z,0.93
2022-08-08T06:17:12.570Z,1.10
2022-08-08T06:22:35.217Z,1.17
2022-08-08T06:27:48.465Z,1.15
2022-08-08T06:32:57.980Z,0.95
2022-08-08T06:38:09.258Z,1.05
2022-08-08T06:43:21.118Z,0.90
2022-08-08T06:48:42.306Z,0.80
2022-08-08T06:53:50.540Z,1.10
2022-08-08T06:59:12.083Z,1.00
2022-08-08T07:04:38.844Z,0.80
2022-08-08T07:09:59.194Z,1.00
2022-08-08T07:15:15.503Z,0.90
2022-08-08T07:20:45.980Z,0.85
2022-08-08T07:26:01.228Z,1.00
2022-08-08T07:31:07.578Z,1.00
2022-08-08T07:36:16.888Z,1.10
2022-08-08T07:41:25.345Z,0.90
2022-08-08T07:46:33.594Z,0.90
2022-08-08T07:51:53.694Z,0.80
2022-08-08T07:57:17.081Z,1.05
2022-08-08T08:02:35.489Z,0.93
2022-08-08T08:07:52.948Z,1.00
2022-08-08T08:13:25.576Z,1.10
2022-08-08T08:18:55.512Z,1.30
2022-08-08T08:24:02.872Z,0.90
2022-08-08T08:29:07.711Z,0.90
2022-08-08T08:34:21.364Z,1.20
2022-08-08T08:39:59.363Z,1.15
2022-08-08T08:44:52.753Z,1.30
2022-08-08T08:49:56.304Z,1.35
2022-08-08T08:55:02.650Z,1.15
2022-08-08T09:00:17.191Z,1.10
2022-08-08T09:05:48.744Z,1.00
2022-08-08T09:10:49.195Z,0.90
2022-08-08T09:16:02.206Z,1.20
2022-08-08T09:22:02.441Z,1.30
2022-08-08T09:26:54.610Z,1.10
2022-08-08T09:32:14.305Z,0.90
2022-08-08T09:37:59.376Z,0.88
2022-08-08T09:43:16.574Z,1.02
2022-08-08T09:48:36.655Z,1.00
2022-08-08T09:53:59.739Z,1.10
2022-08-08T09:59:50.714Z,1.10
2022-08-08T10:04:47.938Z,0.93
2022-08-08T10:09:59.444Z,1.08
2022-08-08T10:15:17.822Z,1.23
2022-08-08T10:20:27.898Z,1.20
2022-08-08T10:25:49.572Z,0.90
2022-08-08T10:31:46.484Z,0.98
2022-08-08T10:36:48.467Z,1.20
2022-08-08T10:41:59.014Z,1.15
2022-08-08T10:47:21.590Z,0.98
2022-08-08T10:52:31.147Z,1.00
2022-08-08T10:57:50.154Z,1.10
2022-08-08T11:02:59.461Z,1.27
2022-08-08T11:08:37.906Z,1.30
2022-08-08T11:13:30.215Z,1.20
2022-08-08T11:18:37.852Z,1.30
2022-08-08T11:23:44.808Z,1.48
2022-08-08T11:29:07.529Z,1.25
2022-08-08T11:34:22.881Z,1.52
2022-08-08T11:39:36.798Z,1.40
2022-08-08T11:44:41.618Z,1.30
2022-08-08T11:49:49.119Z,1.27
2022-08-08T11:54:52.808Z,1.20
2022-08-08T12:00:02.898Z,1.15
2022-08-08T12:05:17.997Z,1.10
2022-08-08T12:10:28.654Z,1.30
2022-08-08T12:15:43.084Z,1.20
2022-08-08T12:20:53.390Z,1.77
2022-08-08T12:25:57.883Z,1.20
2022-08-08T12:31:08.686Z,1.25
2022-08-08T12:36:14.609Z,1.10
2022-08-08T12:41:33.694Z,1.40
2022-08-08T12:46:38.886Z,1.13
2022-08-08T12:51:50.194Z,1.15
2022-08-08T12:56:57.528Z,1.15
2022-08-08T13:02:02.379Z,1.15
2022-08-08T13:07:16.539Z,1.20
2022-08-08T13:12:28.653Z,1.00
2022-08-08T13:18:07.607Z,1.15
2022-08-08T13:23:31.413Z,1.02
2022-08-08T13:28:31.780Z,1.33
2022-08-08T13:33:41.860Z,1.25
2022-08-08T13:38:47.821Z,1.30
2022-08-08T13:43:51.330Z,1.00
2022-08-08T13:50:33.492Z,1.02
2022-08-08T13:54:29.443Z,1.08
2022-08-08T13:59:39.151Z,1.10
2022-08-08T14:04:54.547Z,1.00
2022-08-08T14:10:11.853Z,0.90
2022-08-08T14:15:31.642Z,1.10
2022-08-08T14:20:57.396Z,0.90
2022-08-08T14:26:11.079Z,1.00
2022-08-08T14:31:23.595Z,0.90
2022-08-08T14:36:40.773Z,0.85
2022-08-08T14:42:07.424Z,0.77
2022-08-08T14:47:17.283Z,1.02
2022-08-08T14:52:25.143Z,1.17
2022-08-08T14:58:05.915Z,0.95
2022-08-08T15:02:58.925Z,1.35
2022-08-08T15:08:22.088Z,1.20
2022-08-08T15:13:41.066Z,1.10
2022-08-08T15:19:02.766Z,0.95
2022-08-08T15:24:07.019Z,1.20
2022-08-08T15:29:18.753Z,1.10
2022-08-08T15:34:31.758Z,1.00
2022-08-08T15:39:38.062Z,0.80
2022-08-08T15:44:44.418Z,1.30
2022-08-08T15:49:49.554Z,1.00
2022-08-08T15:54:53.425Z,1.20
2022-08-08T16:00:05.501Z,0.98
2022-08-08T16:05:23.789Z,0.90
2022-08-08T16:13:09.302Z,1.00
2022-08-08T16:15:58.083Z,1.10
2022-08-08T16:21:26.691Z,1.00
2022-08-08T16:26:33.942Z,1.00
2022-08-08T16:31:48.226Z,1.05
2022-08-08T16:36:52.851Z,0.80
2022-08-08T16:42:01.456Z,1.02
2022-08-08T16:47:22.021Z,0.77
2022-08-08T16:55:04.278Z,0.70
2022-08-08T16:58:18.664Z,0.80
2022-08-08T17:03:58.750Z,1.05
2022-08-08T17:08:49.123Z,0.90
2022-08-08T17:14:01.604Z,0.90
2022-08-08T17:19:06.999Z,0.93
2022-08-08T17:24:27.073Z,0.90
2022-08-08T17:29:36.552Z,0.82
2022-08-08T17:35:53.406Z,0.90
2022-08-08T17:40:15.132Z,1.00
2022-08-08T17:45:22.823Z,1.13
2022-08-08T17:50:28.801Z,1.05
2022-08-08T17:56:04.942Z,1.40
2022-08-08T18:00:57.062Z,1.02
2022-08-08T18:06:02.758Z,1.48
2022-08-08T18:11:15.103Z,1.00
2022-08-08T18:16:23.085Z,1.10
2022-08-08T18:21:59.983Z,1.08
2022-08-08T18:26:56.923Z,1.08
2022-08-08T18:32:00.527Z,1.50
2022-08-08T18:37:09.510Z,1.10
2022-08-08T18:42:16.492Z,0.90
2022-08-08T18:47:20.213Z,1.10
2022-08-08T18:52:29.754Z,0.80
2022-08-08T18:57:36.787Z,0.98
2022-08-08T19:02:48.480Z,0.98
2022-08-08T19:08:01.362Z,1.10
2022-08-08T19:13:20.652Z,1.05
2022-08-08T19:18:32.309Z,0.85
2022-08-08T19:23:49.869Z,0.90
2022-08-08T19:28:53.190Z,1.00
2022-08-08T19:34:30.333Z,1.10
2022-08-08T19:39:23.789Z,1.00
2022-08-08T19:44:42.898Z,0.80
2022-08-08T19:50:00.095Z,1.00
2022-08-08T19:55:08.950Z,0.85
2022-08-08T20:00:30.226Z,1.00
2022-08-08T20:06:13.363Z,1.10
2022-08-08T20:11:00.879Z,1.30
2022-08-08T20:16:04.470Z,0.80
2022-08-08T20:21:10.816Z,0.90
2022-08-08T20:26:16.076Z,0.80
2022-08-08T20:31:19.767Z,0.73
2022-08-08T20:36:25.004Z,0.90
2022-08-08T20:41:32.401Z,1.10
2022-08-08T20:46:37.725Z,1.00
2022-08-08T20:51:41.159Z,1.00
2022-08-08T20:57:16.983Z,1.20
2022-08-08T21:02:12.803Z,0.90
2022-08-08T21:07:17.862Z,1.00
2022-08-08T21:12:46.107Z,0.90
2022-08-08T21:17:56.106Z,0.82
2022-08-08T21:22:59.986Z,1.05
2022-08-08T21:28:13.289Z,1.00
2022-08-08T21:33:18.604Z,0.93
2022-08-08T21:38:22.534Z,0.90
2022-08-08T21:43:33.670Z,1.00
2022-08-08T21:48:41.608Z,1.00
2022-08-08T21:54:35.078Z,1.00
2022-08-08T21:59:15.276Z,0.88
2022-08-08T22:04:18.647Z,0.90
2022-08-08T22:09:26.808Z,1.05
2022-08-08T22:14:42.576Z,0.93
2022-08-08T22:26:29.949Z,1.02
2022-08-08T22:31:35.472Z,1.08
2022-08-08T22:36:38.856Z,1.02
2022-08-08T22:41:45.800Z,0.90
2022-08-08T22:46:51.526Z,0.80
2022-08-08T22:51:54.787Z,1.25
2022-08-08T22:57:00.141Z,1.08
2022-08-08T23:02:13.016Z,1.10
2022-08-08T23:12:39.920Z,1.00
2022-08-08T23:17:46.859Z,1.02
2022-08-08T23:22:57.861Z,0.90
2022-08-08T23:28:03.757Z,0.93
2022-08-08T23:33:18.995Z,1.00
2022-08-08T23:38:24.190Z,1.00
2022-08-08T23:43:31.589Z,1.00
2022-08-08T23:49:00.918Z,1.02
2022-08-08T23:54:41.353Z,0.90
2022-08-08T23:59:36.526Z,0.90
